createdAt,value
2024-01-05T00:00:22.031Z,67548.84
2024-01-05T00:04:25.538Z,67557.66
2024-01-05T00:08:29.953Z,67552.53
2024-01-05T00:12:33.061Z,67544.41
2024-01-05T00:16:36.472Z,67534.16
2024-01-05T00:20:39.491Z,67525.19
2024-01-05T00:24:43.997Z,67522.78
2024-01-05T00:28:47.533Z,67511.72
2024-01-05T00:32:50.905Z,67508.41
2024-01-05T00:36:54.354Z,67500.44
2024-01-05T00:41:00.882Z,67491.94
2024-01-05T00:45:03.926Z,67483.84
2024-01-05T00:49:08.536Z,67481.56
2024-01-05T00:53:11.853Z,67481.56
2024-01-05T00:57:16.751Z,67486.38
2024-01-05T01:01:19.942Z,67482.53
2024-01-05T01:05:22.953Z,67480.53
2024-01-05T01:09:26.438Z,67470.47
2024-01-05T01:13:31.213Z,67463.66
2024-01-05T01:17:34.418Z,67461.78
2024-01-05T01:21:39.769Z,67459.50
2024-01-05T01:25:43.532Z,67454.13
2024-01-05T01:29:47.733Z,67449.28
2024-01-05T01:33:53.306Z,67429.25
2024-01-05T01:37:56.233Z,67429.94
2024-01-05T01:41:59.678Z,67417.72
2024-01-05T01:46:05.150Z,67399.53
2024-01-05T01:50:10.737Z,67389.72
2024-01-05T01:54:14.827Z,67383.31
2024-01-05T01:58:21.866Z,67379.91
2024-01-05T02:02:27.734Z,67359.06
2024-01-05T02:06:30.910Z,67354.66
2024-01-05T02:10:33.870Z,67365.47
2024-01-05T02:14:36.976Z,67368.00
2024-01-05T02:19:01.314Z,67354.91
2024-01-05T02:23:09.405Z,67356.06
2024-01-05T02:27:13.966Z,67346.13
2024-01-05T02:31:17.472Z,67348.09
2024-01-05T02:35:23.049Z,67349.66
2024-01-05T02:39:26.782Z,67350.66
2024-01-05T02:43:31.215Z,67343.56
2024-01-05T02:47:34.361Z,67347.69
2024-01-05T02:51:37.433Z,67323.81
2024-01-05T02:55:40.313Z,67340.28
2024-01-05T02:59:44.619Z,67335.75
2024-01-05T03:03:51.856Z,67348.72
2024-01-05T03:07:55.202Z,67361.75
2024-01-05T03:11:58.249Z,67372.28
2024-01-05T03:16:03.726Z,67389.72
2024-01-05T03:20:10.643Z,67379.66
2024-01-05T03:24:14.148Z,67392.31
2024-01-05T03:28:17.093Z,67411.75
2024-01-05T03:32:22.679Z,67435.94
2024-01-05T03:36:25.809Z,67440.47
2024-01-05T03:40:28.780Z,67459.50
2024-01-05T03:44:33.202Z,67467.63
2024-01-05T03:48:37.795Z,67467.78
2024-01-05T03:52:41.402Z,67486.38
2024-01-05T03:56:47.425Z,67500.03
2024-01-05T04:00:50.528Z,67514.81
2024-01-05T04:04:55.714Z,67520.38
2024-01-05T04:09:00.285Z,67507.56
2024-01-05T04:13:03.635Z,67501.88
2024-01-05T04:17:06.639Z,67510.28
2024-01-05T04:21:13.304Z,67529.75
2024-01-05T04:25:16.386Z,67520.38
2024-01-05T04:29:19.277Z,67498.78
2024-01-05T04:33:22.368Z,67511.28
2024-01-05T04:37:27.127Z,67530.75
2024-01-05T04:41:31.933Z,67553.94
2024-01-05T04:45:35.129Z,67573.28
2024-01-05T04:49:38.312Z,67569.47
2024-01-05T04:53:45.343Z,67572.00
2024-01-05T04:57:48.986Z,67573.72
2024-01-05T05:01:51.993Z,67588.38
2024-01-05T05:05:55.178Z,67593.94
2024-01-05T05:09:59.967Z,67606.75
2024-01-05T05:14:02.872Z,67626.81
2024-01-05T05:18:07.847Z,67608.44
2024-01-05T05:22:12.371Z,67592.09
2024-01-05T05:26:16.902Z,67621.25
2024-01-05T05:30:21.189Z,67627.69
2024-01-05T05:34:24.314Z,67626.81
2024-01-05T05:38:27.294Z,67629.41
2024-01-05T05:42:31.896Z,67627.53
2024-01-05T05:46:35.594Z,67634.50
2024-01-05T05:50:38.504Z,67634.50
2024-01-05T05:54:41.428Z,67631.69
2024-01-05T05:58:47.160Z,67624.25
2024-01-05T06:02:50.083Z,67633.97
2024-01-05T06:06:53.142Z,67637.38
2024-01-05T06:10:56.092Z,67650.16
2024-01-05T06:15:01.657Z,67658.88
2024-01-05T06:19:05.430Z,67665.84
2024-01-05T06:23:08.436Z,67690.63
2024-01-05T06:27:12.902Z,67686.34
2024-01-05T06:31:21.648Z,67689.78
2024-01-05T06:35:24.572Z,67701.75
2024-01-05T06:39:27.541Z,67697.03
2024-01-05T06:43:32.480Z,67700.03
2024-01-05T06:47:38.521Z,67678.66
2024-01-05T06:51:44.046Z,67721.69
2024-01-05T06:55:47.086Z,67724.69
2024-01-05T06:59:51.001Z,67720.53
2024-01-05T07:03:55.310Z,67703.16
2024-01-05T07:07:58.220Z,67694.31
2024-01-05T07:12:06.771Z,67701.59
2024-01-05T07:16:16.670Z,67705.59
2024-01-05T07:20:21.553Z,67698.47
2024-01-05T07:24:25.319Z,67692.63
2024-01-05T07:28:28.258Z,67690.19
2024-01-05T07:32:32.707Z,67686.66
2024-01-05T07:36:38.265Z,67688.50
2024-01-05T07:40:41.241Z,67686.78
2024-01-05T07:44:46.066Z,67687.34
2024-01-05T07:48:49.254Z,67688.63
2024-01-05T07:52:54.423Z,67690.91
2024-01-05T07:56:58.288Z,67701.16
2024-01-05T08:01:01.684Z,67698.47
2024-01-05T08:05:05.923Z,67721.53
2024-01-05T08:09:10.783Z,67718.28
2024-01-05T08:13:13.833Z,67716.84
2024-01-05T08:17:16.728Z,67708.44
2024-01-05T08:21:19.795Z,67697.19
2024-01-05T08:25:24.408Z,67695.63
2024-01-05T08:29:27.498Z,67687.50
2024-01-05T08:33:30.740Z,67687.50
2024-01-05T08:37:35.962Z,67678.38
2024-01-05T08:41:46.594Z,67667.56
2024-01-05T08:45:50.446Z,67666.56
2024-01-05T08:49:56.726Z,67665.84
2024-01-05T08:54:00.655Z,67661.31
2024-01-05T08:58:07.494Z,67664.13
2024-01-05T09:02:11.138Z,67655.59
2024-01-05T09:06:15.588Z,67653.88
2024-01-05T09:10:19.607Z,67654.47
2024-01-05T09:14:25.702Z,67652.19
2024-01-05T09:18:35.737Z,67648.34
2024-01-05T09:22:40.367Z,67650.63
2024-01-05T09:26:46.073Z,67660.16
2024-01-05T09:30:55.296Z,67656.31
2024-01-05T09:35:01.607Z,67665.56
2024-01-05T09:39:06.946Z,67665.84
2024-01-05T09:43:30.659Z,67677.22
2024-01-05T09:47:59.055Z,67718.81
2024-01-05T09:52:24.051Z,67679.50
2024-01-05T09:56:50.924Z,67663.84
2024-01-05T10:01:20.497Z,67658.72
2024-01-05T10:05:45.925Z,67650.88
2024-01-05T10:10:12.523Z,67643.06
2024-01-05T10:14:35.994Z,67650.47
2024-01-05T10:19:10.859Z,67646.50
2024-01-05T10:23:42.648Z,67666.69
2024-01-05T10:28:21.439Z,67666.97
2024-01-05T10:32:45.868Z,67667.97
2024-01-05T10:37:11.319Z,67669.69
2024-01-05T10:41:35.989Z,67669.97
2024-01-05T10:46:00.514Z,67677.66
2024-01-05T10:50:26.747Z,67723.38
2024-01-05T10:54:51.565Z,67703.31
2024-01-05T10:59:17.087Z,67691.34
2024-01-05T11:03:44.573Z,67677.22
2024-01-05T11:08:13.127Z,67680.34
2024-01-05T11:12:51.742Z,67658.44
2024-01-05T11:17:33.525Z,67641.22
2024-01-05T11:22:00.864Z,67637.22
2024-01-05T11:26:32.848Z,67648.75
2024-01-05T11:30:56.676Z,67652.59
2024-01-05T11:35:38.197Z,67661.72
2024-01-05T11:40:03.712Z,67670.41
2024-01-05T11:44:37.314Z,67675.97
2024-01-05T11:49:01.261Z,67672.13
2024-01-05T11:53:27.615Z,67674.41
2024-01-05T11:57:54.960Z,67654.31
2024-01-05T12:02:19.526Z,67641.34
2024-01-05T12:06:45.048Z,67624.66
2024-01-05T12:11:09.957Z,67605.47
2024-01-05T12:15:35.639Z,67588.25
2024-01-05T12:20:12.141Z,67582.25
2024-01-05T12:24:36.524Z,67578.13
2024-01-05T12:28:59.814Z,67574.41
2024-01-05T12:33:27.717Z,67575.84
2024-01-05T12:37:51.472Z,67561.50
2024-01-05T12:42:14.892Z,67538.88
2024-01-05T12:46:43.715Z,67530.34
2024-01-05T12:51:10.652Z,67527.63
2024-01-05T12:55:36.253Z,67529.19
2024-01-05T13:00:13.946Z,67529.19
2024-01-05T13:04:40.974Z,67535.72
2024-01-05T13:09:06.645Z,67529.75
2024-01-05T13:13:29.540Z,67534.31
2024-01-05T13:17:53.418Z,67543.28
2024-01-05T13:22:17.378Z,67547.81
2024-01-05T13:26:42.090Z,67551.66
2024-01-05T13:31:05.587Z,67534.03
2024-01-05T13:35:28.740Z,67542.28
2024-01-05T13:39:51.697Z,67540.28
2024-01-05T13:44:15.977Z,67529.91
2024-01-05T13:48:42.411Z,67529.19
2024-01-05T13:53:10.341Z,67528.47
2024-01-05T13:57:33.944Z,67532.63
2024-01-05T14:01:58.556Z,67537.72
2024-01-05T14:06:21.455Z,67537.72
2024-01-05T14:10:45.658Z,67539.44
2024-01-05T14:15:11.296Z,67544.25
2024-01-05T14:19:36.575Z,67540.59
2024-01-05T14:23:59.545Z,67548.97
2024-01-05T14:28:26.202Z,67550.66
2024-01-05T14:32:49.794Z,67552.81
2024-01-05T14:37:14.363Z,67571.72
2024-01-05T14:41:37.447Z,67552.69
2024-01-05T14:46:00.941Z,67560.78
2024-01-05T14:50:24.102Z,67577.28
2024-01-05T14:54:58.501Z,67557.34
2024-01-05T14:59:21.418Z,67542.28
2024-01-05T15:03:44.420Z,67546.53
2024-01-05T15:08:10.074Z,67542.84
2024-01-05T15:12:36.068Z,67556.22
2024-01-05T15:17:00.957Z,67540.59
2024-01-05T15:21:25.594Z,67529.91
2024-01-05T15:25:48.741Z,67529.31
2024-01-05T15:30:13.660Z,67512.84
2024-01-05T15:34:37.153Z,67506.44
2024-01-05T15:39:00.448Z,67503.59
2024-01-05T15:43:23.684Z,67523.94
2024-01-05T15:47:49.760Z,67524.22
2024-01-05T15:52:13.834Z,67517.81
2024-01-05T15:56:39.732Z,67505.47
2024-01-05T16:01:02.694Z,67507.28
2024-01-05T16:05:27.136Z,67507.28
2024-01-05T16:09:50.060Z,67499.06
2024-01-05T16:14:14.902Z,67490.94
2024-01-05T16:18:38.036Z,67482.53
2024-01-05T16:23:02.990Z,67472.75
2024-01-05T16:27:26.224Z,67468.91
2024-01-05T16:31:49.494Z,67462.50
2024-01-05T16:36:14.379Z,67464.19
2024-01-05T16:40:41.396Z,67455.97
2024-01-05T16:45:04.747Z,67457.53
2024-01-05T16:49:27.681Z,67454.53
2024-01-05T16:53:52.241Z,67456.25
2024-01-05T16:58:19.605Z,67453.41
2024-01-05T17:02:42.866Z,67453.41
2024-01-05T17:07:06.022Z,67450.00
2024-01-05T17:11:30.714Z,67441.75
2024-01-05T17:15:55.310Z,67446.59
2024-01-05T17:20:24.934Z,67441.03
2024-01-05T17:24:49.886Z,67437.06
2024-01-05T17:29:12.771Z,67441.72
2024-01-05T17:33:38.303Z,67435.63
2024-01-05T17:38:01.496Z,67435.63
2024-01-05T17:42:24.367Z,67432.22
2024-01-05T17:46:47.479Z,67436.19
2024-01-05T17:51:11.774Z,67432.22
2024-01-05T17:55:34.776Z,67431.81
2024-01-05T17:59:57.731Z,67427.38
2024-01-05T18:04:01.418Z,67433.34
2024-01-05T18:08:08.096Z,67428.94
2024-01-05T18:12:11.147Z,67422.28
2024-01-05T18:16:21.197Z,67424.97
2024-01-05T18:20:24.158Z,67420.59
2024-01-05T18:24:28.995Z,67426.84
2024-01-05T18:28:33.661Z,67427.25
2024-01-05T18:32:36.853Z,67422.16
2024-01-05T18:36:44.449Z,67420.00
2024-01-05T18:40:48.720Z,67423.69
2024-01-05T18:44:52.835Z,67419.44
2024-01-05T18:48:55.896Z,67423.13
2024-01-05T18:52:59.105Z,67420.44
2024-01-05T18:57:03.764Z,67414.31
2024-01-05T19:01:09.071Z,67418.16
2024-01-05T19:05:12.973Z,67420.44
2024-01-05T19:09:16.099Z,67417.00
2024-01-05T19:13:25.344Z,67423.13
2024-01-05T19:17:30.397Z,67418.72
2024-01-05T19:21:45.902Z,67423.28
2024-01-05T19:25:53.260Z,67424.97
2024-01-05T19:29:58.849Z,67428.38
2024-01-05T19:34:01.886Z,67420.31
2024-01-05T19:38:05.900Z,67427.97
2024-01-05T19:42:09.192Z,67435.06
2024-01-05T19:46:15.094Z,67439.59
2024-01-05T19:50:18.146Z,67436.91
2024-01-05T19:54:21.232Z,67439.03
2024-01-05T19:58:24.290Z,67440.19
2024-01-05T20:02:43.865Z,67431.09
2024-01-05T20:06:48.384Z,67435.94
2024-01-05T20:10:51.775Z,67437.06
2024-01-05T20:14:55.077Z,67434.38
2024-01-05T20:19:02.570Z,67438.75
2024-01-05T20:23:06.102Z,67439.34
2024-01-05T20:27:10.623Z,67444.31
2024-01-05T20:31:13.858Z,67440.47
2024-01-05T20:35:18.330Z,67438.19
2024-01-05T20:39:22.223Z,67437.06
2024-01-05T20:43:25.735Z,67434.78
2024-01-05T20:47:30.019Z,67431.38
2024-01-05T20:51:34.413Z,67434.06
2024-01-05T20:55:38.336Z,67430.66
2024-01-05T20:59:41.384Z,67430.66
2024-01-05T21:03:47.707Z,67426.84
2024-01-05T21:07:52.790Z,67427.97
2024-01-05T21:11:56.091Z,67433.34
2024-01-05T21:15:59.900Z,67429.09
2024-01-05T21:20:03.316Z,67431.38
2024-01-05T21:24:08.638Z,67430.25
2024-01-05T21:28:14.137Z,67432.34
2024-01-05T21:32:17.843Z,67434.63
2024-01-05T21:36:20.963Z,67429.81
2024-01-05T21:40:25.404Z,67434.06
2024-01-05T21:44:28.949Z,67434.06
2024-01-05T21:48:33.698Z,67442.44
2024-01-05T21:52:39.025Z,67439.75
2024-01-05T21:56:44.254Z,67440.47
2024-01-05T22:00:47.305Z,67447.00
2024-01-05T22:04:50.378Z,67437.38
2024-01-05T22:08:55.920Z,67449.28
2024-01-05T22:13:00.987Z,67442.16
2024-01-05T22:17:04.324Z,67445.75
2024-01-05T22:21:11.455Z,67444.03
2024-01-05T22:25:16.867Z,67453.81
2024-01-05T22:29:22.303Z,67449.41
2024-01-05T22:33:28.056Z,67445.16
2024-01-05T22:37:31.375Z,67455.69
2024-01-05T22:41:35.286Z,67458.38
2024-01-05T22:45:42.219Z,67454.53
2024-01-05T22:49:45.305Z,67455.25
2024-01-05T22:53:49.809Z,67455.25
2024-01-05T22:57:56.224Z,67461.38
2024-01-05T23:02:02.369Z,67464.06
2024-01-05T23:06:06.267Z,67464.63
2024-01-05T23:10:11.376Z,67467.47
2024-01-05T23:14:16.324Z,67458.69
2024-01-05T23:18:23.794Z,67455.81
2024-01-05T23:22:29.937Z,67454.53
2024-01-05T23:26:33.004Z,67459.09
2024-01-05T23:30:37.414Z,67452.28
2024-01-05T23:34:42.513Z,67444.72
2024-01-05T23:38:46.308Z,67457.25
2024-01-05T23:42:49.762Z,67448.44
2024-01-05T23:46:54.634Z,67454.97
2024-01-05T23:50:59.612Z,67449.72
2024-01-05T23:55:02.614Z,67457.78
2024-01-05T23:59:05.954Z,67457.97
